Time;durP1;ratioP1;P1;durP2;ratioP2;P2;SDS_P1;SDS_P2;PMS_P1;PMS_P2;Temp;Humidity;BMP_temperature;BMP_pressure;BME280_temperature;BME280_humidity;BME280_pressure;Samples;Min_cycle;Max_cycle;Signal;HPM_P1;HPM_P2
2023/09/01 00:02:06;;;;;;;4.20;1.10;;;;;;;;;;4968034;28;20432;-86
2023/09/01 00:04:32;;;;;;;3.43;1.27;;;;;;;;;;4965967;28;20410;-86
2023/09/01 00:06:59;;;;;;;2.83;0.90;;;;;;;;;;4964514;28;20426;-88
2023/09/01 00:09:25;;;;;;;2.60;0.77;;;;;;;;;;4966961;28;20842;-88
2023/09/01 00:11:51;;;;;;;3.77;1.60;;;;;;;;;;4970164;28;20431;-86
2023/09/01 00:14:17;;;;;;;2.80;1.20;;;;;;;;;;4964056;28;20479;-88
2023/09/01 00:16:43;;;;;;;4.20;1.33;;;;;;;;;;4966976;28;20187;-87
2023/09/01 00:19:09;;;;;;;6.20;1.80;;;;;;;;;;4967710;28;20755;-88
2023/09/01 00:21:35;;;;;;;3.37;1.17;;;;;;;;;;4967502;28;20263;-88
2023/09/01 00:24:03;;;;;;;3.00;1.07;;;;;;;;;;4965995;28;20175;-88
2023/09/01 00:26:29;;;;;;;3.20;1.50;;;;;;;;;;4964263;28;20424;-87
2023/09/01 00:28:55;;;;;;;2.53;1.30;;;;;;;;;;4973542;28;20900;-88
2023/09/01 00:31:21;;;;;;;3.67;1.30;;;;;;;;;;4976456;28;20423;-87
2023/09/01 00:33:47;;;;;;;3.47;1.17;;;;;;;;;;4976493;28;20416;-87
2023/09/01 00:36:13;;;;;;;5.07;1.97;;;;;;;;;;4974909;28;20957;-88
2023/09/01 00:38:38;;;;;;;6.43;1.17;;;;;;;;;;4976379;28;20455;-87
2023/09/01 00:41:04;;;;;;;6.70;1.47;;;;;;;;;;4976130;28;20488;-86
2023/09/01 00:43:30;;;;;;;3.27;1.27;;;;;;;;;;4975909;28;20452;-87
2023/09/01 00:45:56;;;;;;;5.43;1.80;;;;;;;;;;4976117;28;20263;-86
2023/09/01 00:48:22;;;;;;;2.77;1.20;;;;;;;;;;4976130;28;20225;-84
2023/09/01 00:50:49;;;;;;;4.00;1.27;;;;;;;;;;4976102;28;20898;-87
2023/09/01 00:53:15;;;;;;;3.17;1.33;;;;;;;;;;4976056;28;20415;-86
2023/09/01 00:55:41;;;;;;;3.60;1.40;;;;;;;;;;4975968;28;20494;-87
2023/09/01 00:58:07;;;;;;;4.70;1.63;;;;;;;;;;4975717;28;20777;-87
2023/09/01 01:00:33;;;;;;;4.43;1.20;;;;;;;;;;4975742;28;20475;-88
2023/09/01 01:03:04;;;;;;;4.57;1.07;;;;;;;;;;4975802;28;20424;-88
2023/09/01 01:05:45;;;;;;;4.63;1.20;;;;;;;;;;4975702;28;20450;-87
2023/09/01 01:08:15;;;;;;;2.90;0.90;;;;;;;;;;4975608;28;20456;-87
2023/09/01 01:10:46;;;;;;;5.40;1.67;;;;;;;;;;4975617;28;20901;-86
2023/09/01 01:13:15;;;;;;;4.23;0.67;;;;;;;;;;4975220;28;20412;-86
2023/09/01 01:15:42;;;;;;;2.53;0.90;;;;;;;;;;4975356;28;21166;-86
2023/09/01 01:18:09;;;;;;;3.90;1.07;;;;;;;;;;4975561;28;20808;-88
2023/09/01 01:20:37;;;;;;;4.33;1.13;;;;;;;;;;4975521;28;21010;-87
2023/09/01 01:23:10;;;;;;;3.37;0.70;;;;;;;;;;4975455;28;20442;-82
2023/09/01 01:25:36;;;;;;;4.83;0.90;;;;;;;;;;4975406;28;20482;-89
2023/09/01 01:28:06;;;;;;;3.97;1.10;;;;;;;;;;4975008;28;20427;-87
2023/09/01 01:30:32;;;;;;;4.87;0.97;;;;;;;;;;4958319;28;20909;-79
2023/09/01 01:32:58;;;;;;;3.13;1.10;;;;;;;;;;4975465;28;20446;-88
2023/09/01 01:35:29;;;;;;;4.47;1.57;;;;;;;;;;4958093;28;20492;-85
2023/09/01 01:38:10;;;;;;;3.67;0.57;;;;;;;;;;4954157;28;20472;-87
2023/09/01 01:40:38;;;;;;;6.43;1.23;;;;;;;;;;4955977;28;20626;-79
2023/09/01 01:43:04;;;;;;;3.20;0.70;;;;;;;;;;4955645;29;21138;-88
2023/09/01 01:45:31;;;;;;;4.10;1.33;;;;;;;;;;4955973;28;20931;-88
2023/09/01 01:47:57;;;;;;;4.80;1.00;;;;;;;;;;4955522;28;20840;-84
2023/09/01 01:50:23;;;;;;;4.30;1.57;;;;;;;;;;4954303;29;20427;-83
2023/09/01 01:52:49;;;;;;;1.93;0.63;;;;;;;;;;4955591;28;20467;-85
2023/09/01 01:55:15;;;;;;;6.20;1.40;;;;;;;;;;4955440;28;20180;-85
2023/09/01 01:57:41;;;;;;;3.40;0.80;;;;;;;;;;4955153;28;20420;-85
2023/09/01 02:00:11;;;;;;;5.50;2.10;;;;;;;;;;4955289;28;20561;-84
2023/09/01 02:02:40;;;;;;;5.23;0.80;;;;;;;;;;4955466;28;20913;-86
2023/09/01 02:05:06;;;;;;;4.67;1.20;;;;;;;;;;4955294;28;20901;-84
2023/09/01 02:07:32;;;;;;;6.67;1.77;;;;;;;;;;4955285;28;20419;-85
2023/09/01 02:09:58;;;;;;;3.67;1.37;;;;;;;;;;4954602;28;20784;-86
2023/09/01 02:12:24;;;;;;;4.70;1.10;;;;;;;;;;4955021;29;20430;-85
2023/09/01 02:14:50;;;;;;;2.80;1.00;;;;;;;;;;4955413;28;20180;-88
2023/09/01 02:17:16;;;;;;;4.13;1.20;;;;;;;;;;4955662;28;20422;-87
2023/09/01 02:19:42;;;;;;;5.53;1.30;;;;;;;;;;4955372;28;20427;-88
2023/09/01 02:22:08;;;;;;;3.70;1.40;;;;;;;;;;4955301;28;20443;-83
2023/09/01 02:24:34;;;;;;;4.33;1.23;;;;;;;;;;4955367;28;20508;-87
2023/09/01 02:27:00;;;;;;;3.50;1.53;;;;;;;;;;4955488;28;20629;-86
2023/09/01 02:29:26;;;;;;;4.33;1.27;;;;;;;;;;4954912;28;20445;-79
2023/09/01 02:31:53;;;;;;;4.83;1.40;;;;;;;;;;4955245;28;20501;-85
2023/09/01 02:34:19;;;;;;;5.40;1.70;;;;;;;;;;4955180;28;20944;-85
2023/09/01 02:36:45;;;;;;;8.17;1.40;;;;;;;;;;4962992;28;20472;-86
2023/09/01 02:39:11;;;;;;;5.70;1.30;;;;;;;;;;4974429;28;20414;-89
2023/09/01 02:41:37;;;;;;;3.03;1.00;;;;;;;;;;4974599;28;20934;-87
2023/09/01 02:44:04;;;;;;;4.53;1.83;;;;;;;;;;4973997;28;20507;-86
2023/09/01 02:46:29;;;;;;;3.43;1.37;;;;;;;;;;4974230;28;20411;-87
2023/09/01 02:48:55;;;;;;;4.03;1.00;;;;;;;;;;4974130;28;20423;-87
2023/09/01 02:51:21;;;;;;;5.97;1.67;;;;;;;;;;4974141;28;20420;-87
2023/09/01 02:53:47;;;;;;;3.93;1.23;;;;;;;;;;4973969;28;20471;-86
2023/09/01 02:56:13;;;;;;;5.70;3.20;;;;;;;;;;4974111;28;20425;-86
2023/09/01 02:58:39;;;;;;;2.53;1.07;;;;;;;;;;4974310;28;20411;-86
2023/09/01 03:01:07;;;;;;;4.90;1.33;;;;;;;;;;4977930;28;20501;-87
2023/09/01 03:03:33;;;;;;;3.23;1.20;;;;;;;;;;4977918;28;20229;-85
2023/09/01 03:05:59;;;;;;;5.83;1.17;;;;;;;;;;4977891;28;20462;-86
2023/09/01 03:08:26;;;;;;;3.10;0.83;;;;;;;;;;4977868;28;20442;-84
2023/09/01 03:10:52;;;;;;;2.83;1.07;;;;;;;;;;4977633;28;20510;-86
2023/09/01 03:13:19;;;;;;;2.97;0.80;;;;;;;;;;4977452;28;20434;-86
2023/09/01 03:15:45;;;;;;;6.23;1.63;;;;;;;;;;4977687;28;20430;-86
2023/09/01 03:18:11;;;;;;;3.93;0.80;;;;;;;;;;4977627;28;20416;-86
2023/09/01 03:20:41;;;;;;;2.83;0.77;;;;;;;;;;4977577;28;20472;-86
2023/09/01 03:23:07;;;;;;;7.27;1.50;;;;;;;;;;4977581;28;20425;-87
2023/09/01 03:25:33;;;;;;;2.67;1.00;;;;;;;;;;4977543;28;20961;-85
2023/09/01 03:27:59;;;;;;;2.60;1.07;;;;;;;;;;4977249;28;20421;-87
2023/09/01 03:30:25;;;;;;;2.37;1.00;;;;;;;;;;4977438;28;20454;-86
2023/09/01 03:32:52;;;;;;;3.00;1.00;;;;;;;;;;4977323;28;20530;-84
2023/09/01 03:35:18;;;;;;;2.57;1.33;;;;;;;;;;4977279;28;20994;-84
2023/09/01 03:37:43;;;;;;;3.20;1.10;;;;;;;;;;4977193;28;20570;-85
2023/09/01 03:40:10;;;;;;;3.00;1.50;;;;;;;;;;4959817;28;20499;-86
2023/09/01 03:42:36;;;;;;;3.53;1.07;;;;;;;;;;4976894;28;20286;-86
2023/09/01 03:45:02;;;;;;;5.63;1.17;;;;;;;;;;4977090;28;20425;-86
2023/09/01 03:47:32;;;;;;;3.67;1.67;;;;;;;;;;4976909;28;20427;-80
2023/09/01 03:49:58;;;;;;;4.27;1.40;;;;;;;;;;4977091;28;20442;-85
2023/09/01 03:52:23;;;;;;;3.37;0.73;;;;;;;;;;4977029;28;20414;-86
2023/09/01 03:54:49;;;;;;;4.00;1.70;;;;;;;;;;4977076;28;20881;-85
2023/09/01 03:57:16;;;;;;;2.63;1.60;;;;;;;;;;4976541;28;20418;-85
2023/09/01 03:59:42;;;;;;;5.43;1.23;;;;;;;;;;4976793;28;20871;-85
2023/09/01 04:02:08;;;;;;;4.47;1.67;;;;;;;;;;4976716;28;20417;-85
2023/09/01 04:04:34;;;;;;;6.03;2.80;;;;;;;;;;4976787;28;20420;-85
2023/09/01 04:07:00;;;;;;;2.63;1.30;;;;;;;;;;4976867;28;20424;-86
2023/09/01 04:09:26;;;;;;;2.40;1.07;;;;;;;;;;4976758;28;20455;-84
2023/09/01 04:11:52;;;;;;;4.93;1.67;;;;;;;;;;4976357;28;20508;-84
2023/09/01 04:14:18;;;;;;;5.93;1.83;;;;;;;;;;4976491;28;20434;-84
2023/09/01 04:16:44;;;;;;;2.77;2.07;;;;;;;;;;4976583;28;20412;-86
2023/09/01 04:19:10;;;;;;;4.70;1.20;;;;;;;;;;4976541;28;20412;-86
2023/09/01 04:21:36;;;;;;;6.13;1.30;;;;;;;;;;4976456;28;20995;-86
2023/09/01 04:24:02;;;;;;;4.87;1.20;;;;;;;;;;4976546;28;20443;-85
2023/09/01 04:26:28;;;;;;;9.67;2.13;;;;;;;;;;4976489;28;20181;-87
2023/09/01 04:28:54;;;;;;;8.33;2.30;;;;;;;;;;4976076;28;20408;-86
2023/09/01 04:31:28;;;;;;;3.67;1.60;;;;;;;;;;4976354;28;20413;-87
2023/09/01 04:33:54;;;;;;;4.93;1.90;;;;;;;;;;4976600;28;20436;-88
2023/09/01 04:36:20;;;;;;;6.37;2.40;;;;;;;;;;4976213;28;20454;-87
2023/09/01 04:38:46;;;;;;;4.50;1.63;;;;;;;;;;4978935;28;20757;-86
2023/09/01 04:41:12;;;;;;;3.93;1.40;;;;;;;;;;4977080;28;20473;-86
2023/09/01 04:43:38;;;;;;;3.73;1.20;;;;;;;;;;4975358;28;20419;-86
2023/09/01 04:46:04;;;;;;;3.30;1.60;;;;;;;;;;4975233;28;20305;-87
2023/09/01 04:48:30;;;;;;;3.43;1.50;;;;;;;;;;4976090;28;20839;-87
2023/09/01 04:50:56;;;;;;;5.10;1.37;;;;;;;;;;4972351;28;20474;-87
2023/09/01 04:53:23;;;;;;;3.57;1.00;;;;;;;;;;4976004;28;20421;-87
2023/09/01 04:55:49;;;;;;;4.33;1.60;;;;;;;;;;4975936;28;20410;-86
2023/09/01 04:58:15;;;;;;;6.10;1.80;;;;;;;;;;4975550;28;20413;-85
2023/09/01 05:00:41;;;;;;;5.40;1.50;;;;;;;;;;4975753;28;20480;-86
2023/09/01 05:03:07;;;;;;;11.23;2.93;;;;;;;;;;4975889;28;20499;-87
2023/09/01 05:05:33;;;;;;;3.70;1.40;;;;;;;;;;4975960;28;20261;-86
2023/09/01 05:07:59;;;;;;;5.43;2.47;;;;;;;;;;4975884;28;20925;-86
2023/09/01 05:10:25;;;;;;;4.30;1.27;;;;;;;;;;4975663;28;20469;-86
2023/09/01 05:12:51;;;;;;;2.77;1.23;;;;;;;;;;4975302;28;20434;-87
2023/09/01 05:15:18;;;;;;;3.13;1.53;;;;;;;;;;4975007;28;20865;-85
2023/09/01 05:17:44;;;;;;;3.83;1.77;;;;;;;;;;4968693;28;20491;-85
2023/09/01 05:20:11;;;;;;;3.93;1.63;;;;;;;;;;4962721;28;20548;-86
2023/09/01 05:22:36;;;;;;;5.73;2.20;;;;;;;;;;4963244;28;20431;-87
2023/09/01 05:25:02;;;;;;;4.03;2.00;;;;;;;;;;4965549;28;20925;-89
2023/09/01 05:27:29;;;;;;;4.10;1.47;;;;;;;;;;4969048;28;20443;-82
2023/09/01 05:29:55;;;;;;;4.47;1.83;;;;;;;;;;4968147;28;20967;-81
2023/09/01 05:32:21;;;;;;;6.13;2.60;;;;;;;;;;4966629;28;20489;-86
2023/09/01 05:34:47;;;;;;;4.37;2.13;;;;;;;;;;4975330;28;20816;-83
2023/09/01 05:37:13;;;;;;;4.90;2.00;;;;;;;;;;4974213;28;20617;-85
2023/09/01 05:39:40;;;;;;;4.50;2.47;;;;;;;;;;4975047;28;20779;-86
2023/09/01 05:42:07;;;;;;;6.20;1.93;;;;;;;;;;4974798;28;20458;-87
2023/09/01 05:44:33;;;;;;;5.10;1.50;;;;;;;;;;4975019;28;20931;-86
2023/09/01 05:46:59;;;;;;;3.30;0.97;;;;;;;;;;4975004;28;20428;-86
2023/09/01 05:49:25;;;;;;;4.10;0.90;;;;;;;;;;4974822;28;20827;-86
2023/09/01 05:51:51;;;;;;;3.53;1.43;;;;;;;;;;4974745;28;20427;-87
2023/09/01 05:54:20;;;;;;;3.33;1.40;;;;;;;;;;4973698;28;20421;-87
2023/09/01 05:56:46;;;;;;;6.50;1.93;;;;;;;;;;4974527;28;20931;-87
2023/09/01 05:59:12;;;;;;;4.10;1.07;;;;;;;;;;4974797;28;20423;-79
2023/09/01 06:01:39;;;;;;;4.23;1.77;;;;;;;;;;4973457;28;20563;-86
2023/09/01 06:04:05;;;;;;;2.17;1.17;;;;;;;;;;4974750;28;20466;-87
2023/09/01 06:06:32;;;;;;;2.93;1.70;;;;;;;;;;4973637;28;20505;-87
2023/09/01 06:09:00;;;;;;;4.43;1.33;;;;;;;;;;4974769;28;20422;-86
2023/09/01 06:11:28;;;;;;;3.20;1.20;;;;;;;;;;4974667;28;20445;-85
2023/09/01 06:13:54;;;;;;;5.17;2.50;;;;;;;;;;4974532;28;20594;-88
2023/09/01 06:16:20;;;;;;;2.27;1.20;;;;;;;;;;4974651;28;20455;-86
2023/09/01 06:18:46;;;;;;;4.73;1.93;;;;;;;;;;4974467;28;20209;-86
2023/09/01 06:21:15;;;;;;;4.00;1.13;;;;;;;;;;4974334;28;20564;-87
2023/09/01 06:23:44;;;;;;;3.53;1.10;;;;;;;;;;4974453;28;20173;-83
2023/09/01 06:26:10;;;;;;;5.63;1.93;;;;;;;;;;4974276;28;20503;-83
2023/09/01 06:28:37;;;;;;;2.53;1.23;;;;;;;;;;4973945;28;20414;-85
2023/09/01 06:31:03;;;;;;;3.00;1.13;;;;;;;;;;4956962;28;20490;-83
2023/09/01 06:33:31;;;;;;;4.30;1.27;;;;;;;;;;4973405;28;20419;-81
2023/09/01 06:35:57;;;;;;;3.40;1.60;;;;;;;;;;4974080;28;20203;-85
2023/09/01 06:38:23;;;;;;;5.30;1.60;;;;;;;;;;4974355;28;20932;-86
2023/09/01 06:40:49;;;;;;;4.17;1.40;;;;;;;;;;4974156;28;20215;-84
2023/09/01 06:43:15;;;;;;;3.40;1.60;;;;;;;;;;4973893;28;20176;-79
2023/09/01 06:45:41;;;;;;;3.43;1.23;;;;;;;;;;4972767;28;20436;-81
2023/09/01 06:48:06;;;;;;;5.13;1.33;;;;;;;;;;4974088;28;20172;-82
2023/09/01 06:50:33;;;;;;;3.63;0.93;;;;;;;;;;4974126;28;20183;-83
2023/09/01 06:52:59;;;;;;;2.60;0.80;;;;;;;;;;4974069;28;20498;-84
2023/09/01 06:55:25;;;;;;;3.03;1.03;;;;;;;;;;4974193;28;20420;-84
2023/09/01 06:57:51;;;;;;;4.70;1.10;;;;;;;;;;4973702;28;20420;-83
2023/09/01 07:00:17;;;;;;;2.73;0.67;;;;;;;;;;4973879;28;20477;-83
2023/09/01 07:02:43;;;;;;;3.07;0.73;;;;;;;;;;4974046;28;20507;-83
2023/09/01 07:05:09;;;;;;;4.30;1.33;;;;;;;;;;4973672;28;20514;-83
2023/09/01 07:07:34;;;;;;;4.60;1.00;;;;;;;;;;4973546;28;20649;-82
2023/09/01 07:10:00;;;;;;;2.30;0.87;;;;;;;;;;4974041;28;20255;-83
2023/09/01 07:12:26;;;;;;;2.63;0.60;;;;;;;;;;4973573;28;20427;-83
2023/09/01 07:14:52;;;;;;;1.30;0.50;;;;;;;;;;4973952;28;20649;-85
2023/09/01 07:17:22;;;;;;;4.67;0.70;;;;;;;;;;4956564;28;20184;-82
2023/09/01 07:19:48;;;;;;;1.40;0.73;;;;;;;;;;4973791;28;20216;-83
2023/09/01 07:22:14;;;;;;;2.97;1.00;;;;;;;;;;4973914;28;20456;-84
2023/09/01 07:24:40;;;;;;;2.30;0.77;;;;;;;;;;4973838;28;20450;-85
2023/09/01 07:27:06;;;;;;;2.30;1.03;;;;;;;;;;4973573;28;20276;-84
2023/09/01 07:29:32;;;;;;;2.37;0.60;;;;;;;;;;4973887;28;20412;-84
2023/09/01 07:31:59;;;;;;;1.67;0.60;;;;;;;;;;4973906;28;20420;-86
2023/09/01 07:34:25;;;;;;;2.40;0.80;;;;;;;;;;4973924;28;20987;-82
2023/09/01 07:36:51;;;;;;;3.00;0.63;;;;;;;;;;4973647;28;20987;-79
2023/09/01 07:39:17;;;;;;;4.20;1.03;;;;;;;;;;4973925;28;20433;-86
2023/09/01 07:41:43;;;;;;;3.07;0.57;;;;;;;;;;4973474;28;20220;-85
2023/09/01 07:44:09;;;;;;;2.63;0.80;;;;;;;;;;4973681;28;20173;-87
2023/09/01 07:46:35;;;;;;;2.90;0.33;;;;;;;;;;4953347;28;20834;-89
2023/09/01 07:49:02;;;;;;;2.87;0.47;;;;;;;;;;4972518;28;20215;-88
2023/09/01 07:51:28;;;;;;;4.07;0.87;;;;;;;;;;4974107;28;20424;-89
2023/09/01 07:53:54;;;;;;;2.97;0.50;;;;;;;;;;4973996;28;20483;-88
2023/09/01 07:56:21;;;;;;;2.23;0.87;;;;;;;;;;4971034;28;20897;-87
2023/09/01 07:58:47;;;;;;;5.13;0.50;;;;;;;;;;4958333;28;20981;-88
2023/09/01 08:01:13;;;;;;;2.27;0.40;;;;;;;;;;4965101;28;20570;-87
2023/09/01 08:03:39;;;;;;;4.33;0.70;;;;;;;;;;4961439;28;20206;-88
2023/09/01 08:06:05;;;;;;;4.83;0.60;;;;;;;;;;4970380;28;20184;-87
2023/09/01 08:08:31;;;;;;;2.50;0.70;;;;;;;;;;4971021;28;20180;-88
2023/09/01 08:10:57;;;;;;;2.53;0.53;;;;;;;;;;4965246;28;20250;-89
2023/09/01 08:13:23;;;;;;;1.47;0.40;;;;;;;;;;4959949;28;20476;-85
2023/09/01 08:15:49;;;;;;;3.27;0.83;;;;;;;;;;4958356;28;20417;-86
2023/09/01 08:18:15;;;;;;;2.30;0.43;;;;;;;;;;4969729;28;20494;-88
2023/09/01 08:20:42;;;;;;;3.43;0.70;;;;;;;;;;4967728;28;20995;-88
2023/09/01 08:23:09;;;;;;;2.60;0.53;;;;;;;;;;4971618;28;20499;-88
2023/09/01 08:25:35;;;;;;;1.60;0.20;;;;;;;;;;4966777;28;20844;-88
2023/09/01 08:28:03;;;;;;;5.17;0.40;;;;;;;;;;4966025;28;20456;-86
2023/09/01 08:30:29;;;;;;;3.00;0.90;;;;;;;;;;4970963;28;20441;-88
2023/09/01 08:32:55;;;;;;;2.53;0.40;;;;;;;;;;4962867;28;20465;-87
2023/09/01 08:35:21;;;;;;;2.30;0.50;;;;;;;;;;4960892;28;20414;-89
2023/09/01 08:37:47;;;;;;;1.80;0.30;;;;;;;;;;4972255;28;20518;-89
2023/09/01 08:40:13;;;;;;;1.23;0.30;;;;;;;;;;4967655;28;20465;-90
2023/09/01 08:42:45;;;;;;;1.83;0.20;;;;;;;;;;4956934;28;20204;-90
2023/09/01 08:45:11;;;;;;;2.63;0.47;;;;;;;;;;4957397;28;20184;-88
2023/09/01 08:47:43;;;;;;;2.30;0.40;;;;;;;;;;4957391;29;20421;-88
2023/09/01 08:50:09;;;;;;;2.30;0.43;;;;;;;;;;4957021;28;20420;-85
2023/09/01 08:52:35;;;;;;;1.40;0.20;;;;;;;;;;4956845;28;20425;-85
2023/09/01 08:55:02;;;;;;;2.90;0.40;;;;;;;;;;4956768;28;20180;-87
2023/09/01 08:57:28;;;;;;;2.70;0.73;;;;;;;;;;4955654;28;20420;-89
2023/09/01 08:59:54;;;;;;;1.20;0.30;;;;;;;;;;4955389;28;20424;-85
2023/09/01 09:02:19;;;;;;;2.43;0.50;;;;;;;;;;4957257;28;20689;-85
2023/09/01 09:04:47;;;;;;;1.80;1.20;;;;;;;;;;4956693;28;20409;-85
2023/09/01 09:07:17;;;;;;;1.97;0.60;;;;;;;;;;4956484;28;20213;-84
2023/09/01 09:09:59;;;;;;;1.60;0.50;;;;;;;;;;4956453;28;20476;-85
2023/09/01 09:12:35;;;;;;;2.70;0.40;;;;;;;;;;4956275;28;20443;-84
2023/09/01 09:15:01;;;;;;;1.63;0.30;;;;;;;;;;4956451;28;20477;-84
2023/09/01 09:17:40;;;;;;;2.27;0.30;;;;;;;;;;4956401;28;20405;-83
2023/09/01 09:20:06;;;;;;;1.93;0.20;;;;;;;;;;4954914;28;20204;-85
2023/09/01 09:22:32;;;;;;;2.53;0.40;;;;;;;;;;4956140;28;20419;-85
2023/09/01 09:24:58;;;;;;;6.33;0.50;;;;;;;;;;4956091;28;20412;-86
2023/09/01 09:27:26;;;;;;;1.63;0.37;;;;;;;;;;4955847;29;20177;-84
2023/09/01 09:29:52;;;;;;;0.90;0.50;;;;;;;;;;4956056;28;20208;-84
2023/09/01 09:32:22;;;;;;;0.87;0.53;;;;;;;;;;4956065;28;20925;-85
2023/09/01 09:35:07;;;;;;;1.17;0.57;;;;;;;;;;4956118;28;20177;-84
2023/09/01 09:37:36;;;;;;;1.53;0.40;;;;;;;;;;4955741;28;20543;-85
2023/09/01 09:40:15;;;;;;;2.67;0.50;;;;;;;;;;4955840;28;20482;-84
2023/09/01 09:42:42;;;;;;;1.70;0.30;;;;;;;;;;4955430;28;20505;-84
2023/09/01 09:45:26;;;;;;;1.67;0.40;;;;;;;;;;4955983;28;20774;-84
2023/09/01 09:47:53;;;;;;;1.87;0.40;;;;;;;;;;4955812;28;20409;-85
2023/09/01 09:50:20;;;;;;;2.47;0.20;;;;;;;;;;4955879;28;20897;-88
2023/09/01 09:52:50;;;;;;;2.33;0.40;;;;;;;;;;4955898;28;20468;-87
2023/09/01 09:55:30;;;;;;;1.37;0.40;;;;;;;;;;4954881;28;20941;-90
2023/09/01 09:58:06;;;;;;;2.00;0.20;;;;;;;;;;4955820;28;20750;-89
2023/09/01 10:00:36;;;;;;;1.77;0.30;;;;;;;;;;4956660;28;20487;-89
2023/09/01 10:03:03;;;;;;;2.00;0.73;;;;;;;;;;4955985;28;20484;-81
2023/09/01 10:05:31;;;;;;;3.23;0.60;;;;;;;;;;4961346;28;20898;-87
2023/09/01 10:07:58;;;;;;;1.87;0.40;;;;;;;;;;4958444;28;20424;-82
2023/09/01 10:10:24;;;;;;;2.50;0.53;;;;;;;;;;4956263;28;20512;-85
2023/09/01 10:12:50;;;;;;;2.33;0.50;;;;;;;;;;4954658;28;20456;-87
2023/09/01 10:15:18;;;;;;;5.20;0.40;;;;;;;;;;4956247;28;20424;-85
2023/09/01 10:17:46;;;;;;;3.37;0.87;;;;;;;;;;4956256;28;20809;-89
2023/09/01 10:20:12;;;;;;;3.60;0.20;;;;;;;;;;4956361;29;20463;-90
2023/09/01 10:22:39;;;;;;;1.97;0.30;;;;;;;;;;4956386;28;21018;-91
2023/09/01 10:25:17;;;;;;;1.00;0.27;;;;;;;;;;4956515;28;20928;-86
2023/09/01 10:28:01;;;;;;;2.97;0.40;;;;;;;;;;4955936;28;20451;-85
2023/09/01 10:30:28;;;;;;;2.43;0.40;;;;;;;;;;4956177;28;20408;-89
2023/09/01 10:33:09;;;;;;;1.40;0.37;;;;;;;;;;4956041;28;20476;-91
2023/09/01 10:35:51;;;;;;;1.93;0.30;;;;;;;;;;4955781;28;20479;-89
2023/09/01 10:38:37;;;;;;;1.30;0.30;;;;;;;;;;4955970;28;20484;-92
2023/09/01 10:41:03;;;;;;;2.67;0.30;;;;;;;;;;4955395;28;20546;-90
2023/09/01 10:43:35;;;;;;;2.57;0.50;;;;;;;;;;4955840;28;20409;-90
2023/09/01 10:46:15;;;;;;;1.07;0.37;;;;;;;;;;4955630;28;20410;-88
2023/09/01 10:48:51;;;;;;;1.90;0.43;;;;;;;;;;4955550;28;20924;-86
2023/09/01 10:51:18;;;;;;;2.63;0.53;;;;;;;;;;4955739;28;20905;-88
2023/09/01 10:53:45;;;;;;;2.20;0.30;;;;;;;;;;4955736;28;20476;-92
2023/09/01 10:56:12;;;;;;;2.10;0.20;;;;;;;;;;4955466;28;20444;-91
2023/09/01 10:58:39;;;;;;;1.63;0.23;;;;;;;;;;4955702;28;20417;-90
2023/09/01 11:01:23;;;;;;;3.17;0.60;;;;;;;;;;4955603;29;20518;-90
2023/09/01 11:03:49;;;;;;;2.30;0.40;;;;;;;;;;4954448;28;20408;-88
2023/09/01 11:06:15;;;;;;;2.53;0.23;;;;;;;;;;4955736;28;20470;-87
2023/09/01 11:08:41;;;;;;;2.97;0.50;;;;;;;;;;4954674;28;20631;-89
2023/09/01 11:11:10;;;;;;;3.37;0.70;;;;;;;;;;4954132;28;20191;-90
2023/09/01 11:13:36;;;;;;;2.37;0.40;;;;;;;;;;4956009;29;20413;-89
2023/09/01 11:16:09;;;;;;;1.50;0.30;;;;;;;;;;4955458;28;20420;-89
2023/09/01 11:18:35;;;;;;;2.13;0.50;;;;;;;;;;4955411;28;20448;-89
2023/09/01 11:21:01;;;;;;;1.47;0.33;;;;;;;;;;4958264;28;20468;-84
2023/09/01 11:23:32;;;;;;;0.90;0.23;;;;;;;;;;4959254;28;20417;-88
2023/09/01 11:25:59;;;;;;;2.83;0.47;;;;;;;;;;4958519;28;20173;-81
2023/09/01 11:28:28;;;;;;;3.30;0.40;;;;;;;;;;4959090;29;20416;-87
2023/09/01 11:31:01;;;;;;;3.33;0.20;;;;;;;;;;4959229;28;20424;-86
2023/09/01 11:33:27;;;;;;;2.00;0.43;;;;;;;;;;4959297;28;20499;-88
2023/09/01 11:36:03;;;;;;;1.23;0.60;;;;;;;;;;4957950;28;20511;-88
2023/09/01 11:38:29;;;;;;;1.23;0.20;;;;;;;;;;4958362;28;20243;-89
2023/09/01 11:40:56;;;;;;;1.57;0.30;;;;;;;;;;4957998;28;20478;-90
2023/09/01 11:43:21;;;;;;;3.20;0.27;;;;;;;;;;4957898;28;20514;-88
2023/09/01 11:45:48;;;;;;;2.00;0.30;;;;;;;;;;4958927;29;20444;-91
2023/09/01 11:48:24;;;;;;;3.80;0.30;;;;;;;;;;4958745;28;20971;-89
2023/09/01 11:50:50;;;;;;;4.07;0.63;;;;;;;;;;4958085;28;20420;-90
2023/09/01 11:53:23;;;;;;;2.63;0.20;;;;;;;;;;4957402;28;20532;-89
2023/09/01 11:55:49;;;;;;;2.10;0.27;;;;;;;;;;4958027;28;20475;-89
2023/09/01 11:58:18;;;;;;;4.93;0.90;;;;;;;;;;4957886;28;20413;-81
2023/09/01 12:00:44;;;;;;;1.37;0.20;;;;;;;;;;4957814;29;21047;-88
2023/09/01 12:03:11;;;;;;;4.43;0.70;;;;;;;;;;4957957;28;20476;-87
2023/09/01 12:05:37;;;;;;;5.20;0.37;;;;;;;;;;4957879;29;20409;-90
2023/09/01 12:08:04;;;;;;;2.30;0.53;;;;;;;;;;4957145;28;20431;-85
2023/09/01 12:10:30;;;;;;;0.90;0.30;;;;;;;;;;4957445;28;20413;-87
2023/09/01 12:13:10;;;;;;;2.30;0.70;;;;;;;;;;4957584;28;20934;-87
2023/09/01 12:15:56;;;;;;;1.00;0.20;;;;;;;;;;4957856;28;20940;-84
2023/09/01 12:18:25;;;;;;;3.63;0.50;;;;;;;;;;4957856;28;20412;-87
2023/09/01 12:20:51;;;;;;;2.33;0.27;;;;;;;;;;4958074;29;20475;-88
2023/09/01 12:23:25;;;;;;;2.23;0.30;;;;;;;;;;4958492;28;20894;-87
2023/09/01 12:25:51;;;;;;;2.57;0.60;;;;;;;;;;4957639;28;20223;-85
2023/09/01 12:28:17;;;;;;;1.27;0.43;;;;;;;;;;4956440;28;20425;-86
2023/09/01 12:30:43;;;;;;;2.13;0.37;;;;;;;;;;4956875;28;20421;-89
2023/09/01 12:33:09;;;;;;;2.63;0.30;;;;;;;;;;4957064;28;20507;-80
2023/09/01 12:35:34;;;;;;;3.67;1.10;;;;;;;;;;4957262;29;20181;-86
2023/09/01 12:38:00;;;;;;;2.00;1.07;;;;;;;;;;4957402;28;20225;-90
2023/09/01 12:40:26;;;;;;;1.97;0.20;;;;;;;;;;4957220;28;20239;-82
2023/09/01 12:42:52;;;;;;;2.67;1.07;;;;;;;;;;4965617;28;20649;-89
2023/09/01 12:45:18;;;;;;;2.10;0.30;;;;;;;;;;4975964;28;20237;-89
2023/09/01 12:47:44;;;;;;;1.57;0.40;;;;;;;;;;4976316;28;20212;-89
2023/09/01 12:50:10;;;;;;;5.43;0.93;;;;;;;;;;4976213;28;20212;-90
2023/09/01 12:52:36;;;;;;;2.77;0.53;;;;;;;;;;4976587;28;20416;-89
2023/09/01 12:55:02;;;;;;;1.00;0.47;;;;;;;;;;4976572;28;20541;-90
2023/09/01 12:57:27;;;;;;;3.97;0.33;;;;;;;;;;4976170;28;20176;-90
2023/09/01 12:59:53;;;;;;;1.40;0.20;;;;;;;;;;4976451;28;20169;-91
2023/09/01 13:02:20;;;;;;;3.07;0.67;;;;;;;;;;4976334;28;20763;-90
2023/09/01 13:04:46;;;;;;;1.90;0.40;;;;;;;;;;4976339;28;20164;-89
2023/09/01 13:07:12;;;;;;;3.83;0.70;;;;;;;;;;4976890;28;20420;-86
2023/09/01 13:09:38;;;;;;;3.00;0.70;;;;;;;;;;4976329;28;20176;-88
2023/09/01 13:12:04;;;;;;;0.80;0.50;;;;;;;;;;4976017;28;20169;-88
2023/09/01 13:14:30;;;;;;;1.63;0.53;;;;;;;;;;4976407;28;20183;-87
2023/09/01 13:16:56;;;;;;;1.47;0.23;;;;;;;;;;4976093;28;20409;-88
2023/09/01 13:19:22;;;;;;;1.63;0.30;;;;;;;;;;4976156;28;20601;-90
2023/09/01 13:21:48;;;;;;;1.07;0.30;;;;;;;;;;4976923;28;20478;-89
2023/09/01 13:24:14;;;;;;;0.80;0.20;;;;;;;;;;4976413;28;20487;-86
2023/09/01 13:26:40;;;;;;;1.43;0.30;;;;;;;;;;4975787;28;20180;-87
2023/09/01 13:29:06;;;;;;;2.33;0.43;;;;;;;;;;4975960;28;20234;-88
2023/09/01 13:31:32;;;;;;;2.53;0.20;;;;;;;;;;4975904;28;20661;-88
2023/09/01 13:33:58;;;;;;;2.23;0.40;;;;;;;;;;4975719;28;20412;-88
2023/09/01 13:36:24;;;;;;;2.60;0.53;;;;;;;;;;4968449;28;20479;-78
2023/09/01 13:38:50;;;;;;;1.40;0.40;;;;;;;;;;4972599;28;20185;-89
2023/09/01 13:41:16;;;;;;;1.10;0.23;;;;;;;;;;4975649;28;20558;-86
2023/09/01 13:43:41;;;;;;;1.40;0.20;;;;;;;;;;4974998;28;20431;-86
2023/09/01 13:46:17;;;;;;;0.70;0.23;;;;;;;;;;4975670;28;20266;-84
2023/09/01 13:48:46;;;;;;;3.03;0.77;;;;;;;;;;4975685;28;20175;-79
2023/09/01 13:51:12;;;;;;;0.90;0.20;;;;;;;;;;4974739;28;20825;-87
2023/09/01 13:53:38;;;;;;;1.70;0.57;;;;;;;;;;4973851;28;20420;-83
2023/09/01 13:56:04;;;;;;;1.07;0.40;;;;;;;;;;4975040;28;20180;-78
2023/09/01 13:58:30;;;;;;;0.70;0.20;;;;;;;;;;4975375;28;20176;-83
2023/09/01 14:00:56;;;;;;;1.10;0.20;;;;;;;;;;4975325;28;20872;-85
2023/09/01 14:03:22;;;;;;;0.90;0.30;;;;;;;;;;4975397;28;20625;-84
2023/09/01 14:05:48;;;;;;;1.67;0.37;;;;;;;;;;4975354;28;20208;-80
2023/09/01 14:08:14;;;;;;;1.83;0.23;;;;;;;;;;4975707;28;20252;-85
2023/09/01 14:10:40;;;;;;;1.93;0.40;;;;;;;;;;4975059;28;20512;-86
2023/09/01 14:13:06;;;;;;;2.63;0.40;;;;;;;;;;4974668;28;20195;-85
2023/09/01 14:15:32;;;;;;;3.80;0.40;;;;;;;;;;4975571;28;20782;-89
2023/09/01 14:17:58;;;;;;;1.83;0.30;;;;;;;;;;4975488;28;20573;-86
2023/09/01 14:20:26;;;;;;;1.00;0.40;;;;;;;;;;4975296;28;20577;-89
2023/09/01 14:22:55;;;;;;;1.60;0.30;;;;;;;;;;4974831;28;20422;-78
2023/09/01 14:25:21;;;;;;;2.47;0.47;;;;;;;;;;4974341;28;20407;-80
2023/09/01 14:27:47;;;;;;;1.13;0.20;;;;;;;;;;4974927;28;20428;-83
2023/09/01 14:30:13;;;;;;;1.77;0.50;;;;;;;;;;4975380;28;20194;-87
2023/09/01 14:32:39;;;;;;;2.23;0.43;;;;;;;;;;4966795;28;20242;-84
2023/09/01 14:35:04;;;;;;;2.27;0.40;;;;;;;;;;4962574;28;20597;-82
2023/09/01 14:37:30;;;;;;;1.00;0.33;;;;;;;;;;4968588;28;20224;-85
2023/09/01 14:39:56;;;;;;;3.60;0.87;;;;;;;;;;4974919;28;20426;-84
2023/09/01 14:42:22;;;;;;;1.50;0.77;;;;;;;;;;4974194;28;20186;-82
2023/09/01 14:44:48;;;;;;;2.90;0.50;;;;;;;;;;4974306;28;20916;-86